Airfield :
LOGIN :

Register | Disclaimer

   EN    FR    IT 

 










Legend :    VFR   Marginal VFR   IFR   Intensive IFR   Very Intensive IFR
Visi :
Ceiling :
>= 8 km
>= 3000ft
5 to 8 km
1000 to 3000 ft
1500m to 5 km
500 to 1000 ft
800 to 1500m
200 to 500 ft
< 800m
< 200 ft
Symbols :   Thunderstorms  Fog  Heavy snow  Heavy precipitations  Wind > 20 kt
SIGMETs :     Misc.  Thunderstorms  Icing  Turbulence  Mountain Waves  Volcanic Ashes






- Airport Elevation : 28 ft
- IATA code : SOZ


LFKS - Solenzara

CURRENT METAR :
  • 280800Z AUTO 15006KT 110V190 CAVOK 27/16 Q1007

EXPIRED METARs :
  • 280730Z AUTO VRB02KT CAVOK 29/14 Q1007
  • 280700Z AUTO VRB04KT CAVOK 28/14 Q1007
  • 280630Z AUTO 30005KT 250V330 CAVOK 25/13 Q1007
  • 280600Z AUTO 31003KT 270V340 CAVOK 25/12 Q1007
  • 280530Z AUTO 32006KT CAVOK 25/11 Q1007

TAF TAF LFKS
Valid from the 27 at 09:00 until the 28 at 09:00 UTC


270800Z 2709/2809 31004KT CAVOK
TEMPO 2714/2720 4000 SHRA SCT030TCU



MET'MAP, your aeronautical weather chart ! - Copyright ORBIFLY December 2007 - Disclaimer

ORBIFLY MET'MAP TEAM :

Programming & Development : Alexandra Zaïnal
Original concept : Baudouin d'Aumeries
Technical & hardware support : Manuel Goepfert
Assistance : Marc-Olivier Méhu

Contact : metmap@orbifly.com




SOURCES & CREDITS :

   NOAA